Time;durP1;ratioP1;P1;durP2;ratioP2;P2;SDS_P1;SDS_P2;PMS_P1;PMS_P2;Temp;Humidity;BMP_temperature;BMP_pressure;BME280_temperature;BME280_humidity;BME280_pressure;Samples;Min_cycle;Max_cycle;Signal;HPM_P1;HPM_P2
2021/05/15 00:02:10;;;;;;;1.52;1.42;;;11.00;99.90;;;;;;5099132;28;20447;-79
2021/05/15 00:04:36;;;;;;;1.00;1.00;;;11.00;99.90;;;;;;5098802;28;20256;-80
2021/05/15 00:07:03;;;;;;;1.52;1.00;;;11.00;99.90;;;;;;5086850;28;20206;-81
2021/05/15 00:09:29;;;;;;;1.37;1.27;;;11.00;99.90;;;;;;5080841;28;20206;-81
2021/05/15 00:11:55;;;;;;;1.20;1.00;;;10.90;99.90;;;;;;5080441;28;20476;-81
2021/05/15 00:14:22;;;;;;;0.90;0.90;;;10.80;99.90;;;;;;5080398;28;20482;-80
2021/05/15 00:16:48;;;;;;;1.63;1.48;;;10.80;99.90;;;;;;5081085;28;20449;-81
2021/05/15 00:19:14;;;;;;;0.97;0.97;;;10.80;99.90;;;;;;5080707;28;20203;-80
2021/05/15 00:21:40;;;;;;;4.60;1.20;;;10.80;99.90;;;;;;5080386;28;20443;-82
2021/05/15 00:24:09;;;;;;;1.55;1.25;;;10.80;99.90;;;;;;5080620;28;20845;-81
2021/05/15 00:26:35;;;;;;;1.07;1.07;;;10.80;99.90;;;;;;5080563;28;20215;-81
2021/05/15 00:29:01;;;;;;;1.50;1.43;;;10.70;99.90;;;;;;5080313;28;20483;-81
2021/05/15 00:31:27;;;;;;;0.80;0.80;;;10.60;99.90;;;;;;5080422;28;21003;-81
2021/05/15 00:33:54;;;;;;;0.90;0.90;;;10.60;99.90;;;;;;5080254;28;20243;-81
2021/05/15 00:36:20;;;;;;;0.93;0.93;;;10.60;99.90;;;;;;5080366;28;20211;-81
2021/05/15 00:38:46;;;;;;;1.20;1.10;;;10.60;99.90;;;;;;5080079;28;20206;-81
2021/05/15 00:41:15;;;;;;;1.27;1.13;;;10.60;99.90;;;;;;5079868;28;20218;-81
2021/05/15 00:43:56;;;;;;;1.13;1.00;;;10.60;99.90;;;;;;5080248;28;20832;-82
2021/05/15 00:46:23;;;;;;;0.73;0.73;;;10.60;99.90;;;;;;5080612;28;20736;-81
2021/05/15 00:48:49;;;;;;;1.17;1.07;;;10.50;99.90;;;;;;5080208;28;20207;-81
2021/05/15 00:51:15;;;;;;;1.20;1.10;;;10.50;99.90;;;;;;5080129;28;20456;-81
2021/05/15 00:53:42;;;;;;;2.60;1.10;;;10.50;99.90;;;;;;5078766;28;20849;-84
2021/05/15 00:56:08;;;;;;;1.15;1.05;;;10.50;99.90;;;;;;5079841;28;20448;-84
2021/05/15 00:58:36;;;;;;;0.95;0.95;;;10.40;99.90;;;;;;5080850;28;20245;-84
2021/05/15 01:01:02;;;;;;;1.00;1.00;;;10.40;99.90;;;;;;5080728;28;20235;-84
2021/05/15 01:03:28;;;;;;;1.10;1.10;;;10.40;99.90;;;;;;5079971;28;20227;-84
2021/05/15 01:05:54;;;;;;;1.30;1.30;;;10.40;99.90;;;;;;5080126;28;20206;-84
2021/05/15 01:08:20;;;;;;;1.00;1.00;;;10.40;99.90;;;;;;5080536;28;20227;-81
2021/05/15 01:10:47;;;;;;;1.33;1.23;;;10.40;99.90;;;;;;5080343;28;20214;-81
2021/05/15 01:13:13;;;;;;;0.70;0.70;;;10.30;99.90;;;;;;5079580;28;20279;-82
2021/05/15 01:15:40;;;;;;;1.00;1.00;;;10.30;99.90;;;;;;5079711;28;20206;-84
2021/05/15 01:18:07;;;;;;;0.90;0.90;;;10.20;99.90;;;;;;5079802;28;20735;-84
2021/05/15 01:20:33;;;;;;;1.65;0.85;;;10.20;99.90;;;;;;5079638;28;20211;-81
2021/05/15 01:23:00;;;;;;;1.95;1.00;;;10.10;99.90;;;;;;5079210;28;20213;-81
2021/05/15 01:25:27;;;;;;;0.90;0.90;;;10.10;99.90;;;;;;5080151;28;20203;-84
2021/05/15 01:27:54;;;;;;;1.10;1.00;;;10.10;99.90;;;;;;5079823;28;20586;-83
2021/05/15 01:30:21;;;;;;;0.90;0.90;;;10.10;99.90;;;;;;5080201;28;20214;-84
2021/05/15 01:32:48;;;;;;;2.35;2.25;;;10.00;99.90;;;;;;5082842;28;20279;-83
2021/05/15 01:35:16;;;;;;;1.17;1.13;;;10.00;99.90;;;;;;5081218;28;20221;-84
2021/05/15 01:37:43;;;;;;;1.20;0.93;;;10.00;99.90;;;;;;5079489;28;20205;-84
2021/05/15 01:40:12;;;;;;;1.10;1.08;;;9.90;99.90;;;;;;5079826;28;20516;-84
2021/05/15 01:42:41;;;;;;;1.77;1.20;;;9.90;99.90;;;;;;5079580;28;20203;-84
2021/05/15 01:45:08;;;;;;;1.38;1.27;;;9.80;99.90;;;;;;5080226;28;20205;-84
2021/05/15 01:47:35;;;;;;;1.10;1.10;;;9.80;99.90;;;;;;5079105;28;20212;-84
2021/05/15 01:50:02;;;;;;;1.20;1.20;;;9.80;99.90;;;;;;5079310;28;20231;-81
2021/05/15 01:52:30;;;;;;;1.48;1.05;;;9.70;99.90;;;;;;5079056;28;20250;-84
2021/05/15 01:54:57;;;;;;;1.40;0.90;;;9.60;99.90;;;;;;5079432;28;20228;-83
2021/05/15 01:57:24;;;;;;;5.47;1.33;;;9.50;99.90;;;;;;5079448;28;20201;-84
2021/05/15 01:59:52;;;;;;;1.08;1.00;;;9.60;99.90;;;;;;5079105;28;20233;-84
2021/05/15 02:02:19;;;;;;;6.15;1.23;;;9.60;99.90;;;;;;5078326;28;20581;-83
2021/05/15 02:04:45;;;;;;;1.38;0.90;;;9.60;99.90;;;;;;5077299;28;20232;-84
2021/05/15 02:07:11;;;;;;;1.90;1.80;;;9.60;99.90;;;;;;5079714;28;20225;-84
2021/05/15 02:09:37;;;;;;;1.10;1.05;;;9.60;99.90;;;;;;5078630;28;20229;-84
2021/05/15 02:12:04;;;;;;;1.83;1.38;;;9.60;99.90;;;;;;5079146;28;20644;-84
2021/05/15 02:14:31;;;;;;;1.80;1.45;;;9.50;99.90;;;;;;5078401;28;20225;-84
2021/05/15 02:16:58;;;;;;;2.00;1.85;;;9.50;99.90;;;;;;5079080;28;20757;-84
2021/05/15 02:19:24;;;;;;;1.48;1.20;;;9.50;99.90;;;;;;5078304;28;20209;-81
2021/05/15 02:21:50;;;;;;;1.40;1.30;;;9.50;99.90;;;;;;5078500;28;20205;-81
2021/05/15 02:24:16;;;;;;;2.25;1.45;;;9.50;99.90;;;;;;5078721;28;20237;-82
2021/05/15 02:26:42;;;;;;;1.38;1.27;;;9.50;99.90;;;;;;5079062;28;20211;-82
2021/05/15 02:29:09;;;;;;;1.60;1.50;;;9.50;99.90;;;;;;5078081;28;20216;-84
2021/05/15 02:31:36;;;;;;;1.38;1.27;;;9.50;99.90;;;;;;5078159;28;20204;-83
2021/05/15 02:34:02;;;;;;;1.85;1.42;;;9.50;99.90;;;;;;5078526;28;20237;-84
2021/05/15 02:36:28;;;;;;;1.33;1.25;;;9.50;99.90;;;;;;5078809;28;20204;-81
2021/05/15 02:38:55;;;;;;;1.63;1.05;;;9.40;99.90;;;;;;5078000;28;20201;-81
2021/05/15 02:41:21;;;;;;;1.60;1.50;;;9.40;99.90;;;;;;5078265;28;20205;-81
2021/05/15 02:43:47;;;;;;;3.92;1.58;;;9.40;99.90;;;;;;5078236;28;20226;-83
2021/05/15 02:46:13;;;;;;;2.58;1.45;;;9.40;99.90;;;;;;5078319;28;20209;-84
2021/05/15 02:48:40;;;;;;;1.95;1.20;;;9.30;99.90;;;;;;5078770;28;20239;-84
2021/05/15 02:51:06;;;;;;;1.52;1.42;;;9.30;99.90;;;;;;5078398;28;20273;-80
2021/05/15 02:53:33;;;;;;;1.85;1.75;;;9.20;99.90;;;;;;5077097;28;20225;-82
2021/05/15 02:55:59;;;;;;;1.33;1.33;;;9.20;99.90;;;;;;5077939;28;20212;-83
2021/05/15 02:58:26;;;;;;;1.80;1.70;;;9.20;99.90;;;;;;5078893;28;20201;-83
2021/05/15 03:00:52;;;;;;;2.67;1.23;;;9.20;99.90;;;;;;5077990;28;20220;-83
2021/05/15 03:03:22;;;;;;;1.60;1.50;;;9.10;99.90;;;;;;5079417;28;20336;-83
2021/05/15 03:05:49;;;;;;;2.10;1.60;;;9.10;99.90;;;;;;5084673;28;20210;-84
2021/05/15 03:08:16;;;;;;;1.17;1.10;;;9.10;99.90;;;;;;5083702;28;20199;-81
2021/05/15 03:10:42;;;;;;;1.60;1.50;;;9.10;99.90;;;;;;5084517;28;20201;-83
2021/05/15 03:13:08;;;;;;;1.40;1.33;;;9.10;99.90;;;;;;5084942;28;20237;-83
2021/05/15 03:15:34;;;;;;;1.50;1.40;;;9.10;99.90;;;;;;5079536;28;20236;-83
2021/05/15 03:18:00;;;;;;;4.22;1.67;;;9.10;99.90;;;;;;5082172;28;20257;-84
2021/05/15 03:20:27;;;;;;;1.67;1.33;;;9.10;99.90;;;;;;5082436;28;20671;-84
2021/05/15 03:22:54;;;;;;;1.30;1.20;;;9.10;99.90;;;;;;5081461;28;20606;-81
2021/05/15 03:25:21;;;;;;;1.42;1.33;;;9.10;99.90;;;;;;5081691;28;20255;-83
2021/05/15 03:27:48;;;;;;;1.80;1.70;;;9.10;99.90;;;;;;5081790;28;20693;-82
2021/05/15 03:30:16;;;;;;;2.10;2.00;;;9.00;99.90;;;;;;5081529;28;20730;-83
2021/05/15 03:32:42;;;;;;;1.63;1.50;;;9.00;99.90;;;;;;5081369;28;20339;-83
2021/05/15 03:35:10;;;;;;;2.20;1.15;;;9.00;99.90;;;;;;5081436;28;20667;-83
2021/05/15 03:37:36;;;;;;;1.40;1.38;;;9.00;99.90;;;;;;5081628;28;20209;-83
2021/05/15 03:40:06;;;;;;;1.48;1.38;;;9.00;99.90;;;;;;5081634;28;20231;-83
2021/05/15 03:42:32;;;;;;;1.80;1.65;;;9.00;99.90;;;;;;5081861;28;20211;-82
2021/05/15 03:44:58;;;;;;;2.00;1.70;;;9.00;99.90;;;;;;5081419;28;20610;-83
2021/05/15 03:47:24;;;;;;;1.48;1.38;;;9.00;99.90;;;;;;5081486;28;20205;-83
2021/05/15 03:49:51;;;;;;;3.17;1.90;;;9.00;99.90;;;;;;5081440;28;20210;-84
2021/05/15 03:52:17;;;;;;;2.20;1.50;;;9.10;99.90;;;;;;5081045;28;20226;-83
2021/05/15 03:54:43;;;;;;;2.22;1.63;;;9.10;99.90;;;;;;5081038;28;20225;-83
2021/05/15 03:57:10;;;;;;;2.10;1.58;;;9.10;99.90;;;;;;5081076;28;20201;-84
2021/05/15 03:59:36;;;;;;;2.80;1.77;;;9.20;99.90;;;;;;5081059;28;20209;-83
2021/05/15 04:02:03;;;;;;;1.40;1.30;;;9.20;99.90;;;;;;5080763;28;20207;-82
2021/05/15 04:04:29;;;;;;;1.60;1.50;;;9.20;99.90;;;;;;5080790;28;20233;-83
2021/05/15 04:06:55;;;;;;;2.70;1.30;;;9.20;99.90;;;;;;5080890;28;20209;-84
2021/05/15 04:09:21;;;;;;;1.80;1.70;;;9.20;99.90;;;;;;5080697;28;20208;-83
2021/05/15 04:11:48;;;;;;;2.58;1.73;;;9.30;99.90;;;;;;5080220;28;20209;-84
2021/05/15 04:17:15;;;;;;;1.40;1.30;;;9.40;99.90;;;;;;5082166;28;20213;-83
2021/05/15 04:19:41;;;;;;;1.50;1.40;;;9.40;99.90;;;;;;5083272;28;20205;-83
2021/05/15 04:22:08;;;;;;;2.38;1.85;;;9.50;99.90;;;;;;5082143;28;20205;-82
2021/05/15 04:24:34;;;;;;;1.55;1.45;;;9.50;99.90;;;;;;5082947;28;20710;-83
2021/05/15 04:27:03;;;;;;;1.90;1.55;;;9.50;99.90;;;;;;5083109;28;20233;-83
2021/05/15 04:29:30;;;;;;;2.42;1.70;;;9.50;99.90;;;;;;5083340;28;20206;-84
2021/05/15 04:31:58;;;;;;;2.60;1.27;;;9.60;99.90;;;;;;5081771;28;20240;-82
2021/05/15 04:34:25;;;;;;;1.23;1.23;;;9.60;99.90;;;;;;5080341;28;20730;-83
2021/05/15 04:36:51;;;;;;;1.45;1.35;;;9.60;99.90;;;;;;5079938;28;20250;-83
2021/05/15 04:39:18;;;;;;;1.60;1.50;;;9.60;99.90;;;;;;5079977;28;20212;-84
2021/05/15 04:41:44;;;;;;;1.30;1.20;;;9.60;99.90;;;;;;5082056;28;20205;-83
2021/05/15 04:44:11;;;;;;;1.42;1.33;;;9.60;99.90;;;;;;5087215;28;20515;-83
2021/05/15 04:46:38;;;;;;;1.10;1.10;;;9.60;99.90;;;;;;5084732;28;20205;-81
2021/05/15 04:49:04;;;;;;;1.40;1.30;;;9.60;99.90;;;;;;5081511;28;20210;-84
2021/05/15 04:51:30;;;;;;;1.73;1.17;;;9.70;99.90;;;;;;5080993;28;20214;-83
2021/05/15 04:53:57;;;;;;;1.15;1.10;;;9.70;99.90;;;;;;5082225;28;20260;-81
2021/05/15 04:56:23;;;;;;;1.70;1.60;;;9.80;99.90;;;;;;5081855;28;20206;-83
2021/05/15 04:58:49;;;;;;;1.05;1.05;;;9.80;99.90;;;;;;5080712;28;20202;-83
2021/05/15 05:01:15;;;;;;;1.42;1.33;;;9.90;99.90;;;;;;5080343;28;20682;-83
2021/05/15 05:03:42;;;;;;;3.45;2.65;;;10.00;99.90;;;;;;5079902;28;20241;-84
2021/05/15 05:06:09;;;;;;;1.80;1.70;;;10.00;99.90;;;;;;5080378;28;20206;-84
2021/05/15 05:08:35;;;;;;;1.03;1.00;;;10.10;99.90;;;;;;5080710;28;20210;-84
2021/05/15 05:11:01;;;;;;;2.20;1.10;;;10.10;99.90;;;;;;5080050;28;20473;-81
2021/05/15 05:13:27;;;;;;;2.80;1.20;;;10.20;99.90;;;;;;5079898;28;20493;-81
2021/05/15 05:15:53;;;;;;;2.10;2.00;;;10.30;99.90;;;;;;5079610;28;20457;-82
2021/05/15 05:18:20;;;;;;;1.30;1.20;;;10.30;99.90;;;;;;5080267;28;20449;-82
2021/05/15 05:20:47;;;;;;;1.60;1.50;;;10.30;99.90;;;;;;5079427;28;20515;-83
2021/05/15 05:23:13;;;;;;;1.23;1.20;;;10.30;99.90;;;;;;5079806;28;20478;-84
2021/05/15 05:25:39;;;;;;;1.20;0.97;;;10.40;99.90;;;;;;5087739;28;20225;-78
2021/05/15 05:28:06;;;;;;;1.10;1.00;;;10.50;99.90;;;;;;5095800;28;20448;-81
2021/05/15 05:30:33;;;;;;;1.60;1.08;;;10.60;99.90;;;;;;5097946;28;20213;-80
2021/05/15 05:33:00;;;;;;;0.90;0.90;;;10.80;99.90;;;;;;5095453;28;20227;-84
2021/05/15 05:35:27;;;;;;;0.90;0.90;;;10.90;99.90;;;;;;5079983;28;20443;-84
2021/05/15 05:37:55;;;;;;;1.40;0.98;;;11.00;99.90;;;;;;5079990;28;20452;-84
2021/05/15 05:40:21;;;;;;;0.97;0.93;;;11.10;99.90;;;;;;5079508;28;20200;-84
2021/05/15 05:42:47;;;;;;;2.00;1.10;;;11.20;99.90;;;;;;5079258;28;20461;-84
2021/05/15 05:45:15;;;;;;;0.90;0.90;;;11.30;99.90;;;;;;5078976;28;20480;-84
2021/05/15 05:47:41;;;;;;;2.10;1.10;;;11.40;99.90;;;;;;5079152;28;20508;-84
2021/05/15 05:50:09;;;;;;;1.57;1.47;;;11.50;99.90;;;;;;5080306;28;20458;-84
2021/05/15 05:52:36;;;;;;;0.90;0.90;;;11.50;99.90;;;;;;5079636;28;20498;-84
2021/05/15 05:55:05;;;;;;;1.30;0.90;;;11.40;99.90;;;;;;5079674;28;20474;-84
2021/05/15 05:57:31;;;;;;;0.80;0.70;;;11.40;99.90;;;;;;5079264;28;20458;-84
2021/05/15 05:59:58;;;;;;;0.80;0.80;;;11.50;99.90;;;;;;5079468;28;20511;-84
2021/05/15 06:02:24;;;;;;;0.90;0.90;;;11.60;99.90;;;;;;5078926;28;20457;-84
2021/05/15 06:04:50;;;;;;;1.43;1.00;;;11.60;99.90;;;;;;5079297;28;20477;-81
2021/05/15 06:07:17;;;;;;;0.53;0.53;;;11.50;99.90;;;;;;5079939;28;20458;-83
2021/05/15 06:09:43;;;;;;;1.00;0.77;;;11.50;99.90;;;;;;5079265;28;20445;-84
2021/05/15 06:12:11;;;;;;;0.90;0.90;;;11.60;99.90;;;;;;5078560;28;20457;-84
2021/05/15 06:14:37;;;;;;;1.00;0.83;;;11.70;99.90;;;;;;5078627;28;20975;-84
2021/05/15 06:17:04;;;;;;;2.77;2.50;;;11.70;99.90;;;;;;5079238;28;20939;-84
2021/05/15 06:19:30;;;;;;;0.73;0.73;;;11.80;99.90;;;;;;5078653;28;20447;-84
2021/05/15 06:21:57;;;;;;;1.10;0.90;;;11.80;99.90;;;;;;5078288;28;20446;-84
2021/05/15 06:24:24;;;;;;;0.77;0.77;;;11.80;99.90;;;;;;5079464;28;20478;-84
2021/05/15 06:26:50;;;;;;;1.30;1.10;;;11.90;99.90;;;;;;5078913;28;20455;-84
2021/05/15 06:29:17;;;;;;;0.90;0.90;;;12.00;99.90;;;;;;5078902;28;20447;-84
2021/05/15 06:31:43;;;;;;;1.47;1.37;;;12.10;99.90;;;;;;5078511;28;20453;-84
2021/05/15 06:34:09;;;;;;;0.90;0.90;;;12.30;99.90;;;;;;5078512;28;20489;-84
2021/05/15 06:36:35;;;;;;;0.67;0.67;;;12.40;99.90;;;;;;5078729;28;20540;-84
2021/05/15 06:39:02;;;;;;;1.87;1.00;;;12.60;99.90;;;;;;5078692;28;20438;-84
2021/05/15 06:41:28;;;;;;;0.83;0.70;;;12.70;99.70;;;;;;5078253;28;20443;-84
2021/05/15 06:43:54;;;;;;;0.80;0.80;;;12.90;99.40;;;;;;5079094;28;20468;-84
2021/05/15 06:46:21;;;;;;;0.97;0.97;;;13.00;99.00;;;;;;5078868;28;20447;-84
2021/05/15 06:48:47;;;;;;;0.70;0.70;;;13.00;99.00;;;;;;5078418;28;20453;-84
2021/05/15 06:51:14;;;;;;;0.97;0.87;;;13.10;99.10;;;;;;5078168;28;20459;-84
2021/05/15 06:53:40;;;;;;;1.10;1.00;;;13.30;99.20;;;;;;5078592;28;20980;-84
2021/05/15 06:56:06;;;;;;;1.03;1.03;;;13.40;98.60;;;;;;5078880;28;20464;-84
2021/05/15 06:58:32;;;;;;;0.73;0.73;;;13.70;98.10;;;;;;5078693;28;20455;-83
2021/05/15 07:00:58;;;;;;;0.87;0.87;;;13.80;97.80;;;;;;5078773;28;20461;-84
2021/05/15 07:03:25;;;;;;;0.80;0.80;;;13.90;97.50;;;;;;5077896;28;20525;-84
2021/05/15 07:05:51;;;;;;;0.90;0.90;;;14.00;96.80;;;;;;5078715;28;20447;-82
2021/05/15 07:08:18;;;;;;;0.80;0.80;;;13.90;96.70;;;;;;5078508;28;20454;-84
2021/05/15 07:10:44;;;;;;;0.90;0.90;;;14.00;96.60;;;;;;5078600;28;20601;-84
2021/05/15 07:13:10;;;;;;;0.87;0.87;;;14.00;96.50;;;;;;5077528;28;21041;-84
2021/05/15 07:15:36;;;;;;;6.30;1.37;;;14.00;96.90;;;;;;5078889;28;20444;-84
2021/05/15 07:18:03;;;;;;;0.70;0.70;;;14.10;97.00;;;;;;5078234;28;20450;-84
2021/05/15 07:20:30;;;;;;;9.20;6.27;;;14.00;96.40;;;;;;5078699;28;20515;-84
2021/05/15 07:22:56;;;;;;;3.53;2.90;;;14.10;97.00;;;;;;5077491;28;20514;-83
2021/05/15 07:25:23;;;;;;;2.53;2.23;;;14.20;96.90;;;;;;5077961;28;20957;-84
2021/05/15 07:27:50;;;;;;;0.97;0.97;;;14.40;96.60;;;;;;5078387;28;20818;-84
2021/05/15 07:30:17;;;;;;;1.33;0.93;;;14.60;96.00;;;;;;5079108;28;20462;-84
2021/05/15 07:32:44;;;;;;;0.80;0.80;;;14.70;95.50;;;;;;5078078;28;20571;-84
2021/05/15 07:35:11;;;;;;;1.17;1.13;;;14.80;95.40;;;;;;5078147;28;20856;-83
2021/05/15 07:37:38;;;;;;;0.87;0.87;;;14.70;94.80;;;;;;5078720;28;20459;-84
2021/05/15 07:40:06;;;;;;;1.20;1.10;;;14.70;95.00;;;;;;5078104;28;20470;-83
2021/05/15 07:42:32;;;;;;;1.20;0.90;;;14.60;94.90;;;;;;5077963;28;20445;-82
2021/05/15 07:44:58;;;;;;;0.93;0.87;;;14.50;95.50;;;;;;5078939;28;20458;-84
2021/05/15 07:47:29;;;;;;;1.07;0.77;;;14.50;95.30;;;;;;5078922;28;20440;-84
2021/05/15 07:49:55;;;;;;;0.70;0.70;;;14.50;95.40;;;;;;5079384;28;20456;-84
2021/05/15 07:52:21;;;;;;;2.00;1.13;;;14.60;95.60;;;;;;5079037;28;20497;-84
2021/05/15 07:54:48;;;;;;;3.40;0.93;;;14.60;95.10;;;;;;5078417;28;21084;-84
2021/05/15 07:57:14;;;;;;;1.33;1.00;;;14.60;94.80;;;;;;5080445;28;20944;-83
2021/05/15 07:59:41;;;;;;;1.87;1.03;;;14.60;94.80;;;;;;5079615;28;20523;-82
2021/05/15 08:02:07;;;;;;;0.90;0.90;;;14.60;94.70;;;;;;5080799;28;20508;-84
2021/05/15 08:04:33;;;;;;;1.43;1.33;;;14.60;94.40;;;;;;5083342;28;20477;-84
2021/05/15 08:06:59;;;;;;;1.00;0.90;;;14.60;94.60;;;;;;5083542;28;20481;-84
2021/05/15 08:09:25;;;;;;;0.70;0.70;;;14.60;94.30;;;;;;5082689;28;20454;-84
2021/05/15 08:11:55;;;;;;;1.53;1.10;;;14.60;94.30;;;;;;5082628;28;20455;-83
2021/05/15 08:14:21;;;;;;;1.57;0.77;;;14.70;94.20;;;;;;5083341;28;20503;-83
2021/05/15 08:16:48;;;;;;;1.00;1.00;;;14.70;94.30;;;;;;5082877;28;20459;-84
2021/05/15 08:19:14;;;;;;;2.20;1.00;;;14.70;94.30;;;;;;5082680;28;20453;-84
2021/05/15 08:21:40;;;;;;;0.90;0.90;;;14.80;94.00;;;;;;5082570;28;20447;-83
2021/05/15 08:24:07;;;;;;;0.80;0.80;;;14.80;94.10;;;;;;5082377;28;20497;-84
2021/05/15 08:26:33;;;;;;;0.80;0.80;;;14.80;93.90;;;;;;5082113;28;20477;-83
2021/05/15 08:29:01;;;;;;;1.27;0.87;;;14.70;93.80;;;;;;5082051;28;20501;-84
2021/05/15 08:31:28;;;;;;;1.10;1.00;;;14.70;94.00;;;;;;5082109;28;20450;-84
2021/05/15 08:33:54;;;;;;;2.17;1.00;;;14.70;93.80;;;;;;5082548;28;20497;-84
2021/05/15 08:36:20;;;;;;;0.83;0.83;;;14.70;93.90;;;;;;5083219;28;20452;-83
2021/05/15 08:38:46;;;;;;;1.30;1.20;;;14.70;93.90;;;;;;5082810;28;20458;-82
2021/05/15 08:41:12;;;;;;;1.63;0.93;;;14.80;94.00;;;;;;5082668;28;20447;-83
2021/05/15 08:43:41;;;;;;;1.17;0.93;;;14.90;94.10;;;;;;5081581;28;20467;-83
2021/05/15 08:46:12;;;;;;;2.13;1.10;;;14.90;94.00;;;;;;5081573;28;20484;-81
2021/05/15 08:48:40;;;;;;;1.20;1.10;;;15.10;93.60;;;;;;5081407;28;20450;-82
2021/05/15 08:51:07;;;;;;;1.00;1.00;;;15.10;93.60;;;;;;5081085;28;20451;-83
2021/05/15 08:53:34;;;;;;;1.00;0.90;;;15.10;93.60;;;;;;5081071;28;20491;-83
2021/05/15 08:56:01;;;;;;;1.00;0.90;;;15.20;93.60;;;;;;5080966;28;20455;-83
2021/05/15 08:58:27;;;;;;;3.17;0.80;;;15.40;93.20;;;;;;5081511;28;20482;-81
2021/05/15 09:00:54;;;;;;;1.03;0.90;;;15.60;93.30;;;;;;5082137;28;20459;-82
2021/05/15 09:03:22;;;;;;;1.57;1.07;;;15.70;92.70;;;;;;5095338;28;20979;-83
2021/05/15 09:05:50;;;;;;;1.60;1.00;;;15.80;92.60;;;;;;5096663;28;20444;-81
2021/05/15 09:08:18;;;;;;;1.53;1.00;;;15.80;92.90;;;;;;5090617;28;20435;-83
2021/05/15 09:10:48;;;;;;;1.10;1.10;;;16.00;92.50;;;;;;5086696;28;20448;-83
2021/05/15 09:13:17;;;;;;;1.67;1.10;;;16.10;92.40;;;;;;5088852;28;20498;-82
2021/05/15 09:15:45;;;;;;;1.67;1.00;;;16.20;91.90;;;;;;5089720;28;20457;-83
2021/05/15 09:18:15;;;;;;;1.23;1.13;;;16.30;91.90;;;;;;5086775;28;20879;-83
2021/05/15 09:20:42;;;;;;;0.90;0.67;;;16.50;92.10;;;;;;5089382;28;20512;-83
2021/05/15 09:23:18;;;;;;;1.83;0.80;;;16.70;92.00;;;;;;5084935;28;20486;-83
2021/05/15 09:25:54;;;;;;;1.30;1.20;;;16.90;91.30;;;;;;5090616;28;20454;-82
2021/05/15 09:28:34;;;;;;;2.80;1.10;;;16.90;90.30;;;;;;5091148;28;20440;-80
2021/05/15 09:31:19;;;;;;;2.40;2.27;;;16.90;89.90;;;;;;5102486;28;21122;-85
2021/05/15 09:33:49;;;;;;;0.83;0.83;;;16.70;90.10;;;;;;5103621;28;20526;-82
2021/05/15 09:36:18;;;;;;;0.97;0.90;;;16.90;90.30;;;;;;5103242;28;20481;-82
2021/05/15 09:38:44;;;;;;;1.37;1.13;;;16.70;90.60;;;;;;5105014;28;20469;-81
2021/05/15 09:41:11;;;;;;;1.10;1.07;;;16.90;90.60;;;;;;5104909;28;20456;-84
2021/05/15 09:43:42;;;;;;;1.37;0.70;;;17.10;90.40;;;;;;5102374;28;20842;-84
2021/05/15 09:46:12;;;;;;;1.07;0.97;;;17.30;89.90;;;;;;5100483;28;20447;-84
2021/05/15 09:48:39;;;;;;;1.37;1.13;;;17.30;89.80;;;;;;5101722;28;20459;-84
2021/05/15 09:51:13;;;;;;;1.40;1.23;;;17.50;90.00;;;;;;5100083;28;20447;-84
2021/05/15 09:53:41;;;;;;;1.33;1.23;;;17.60;89.10;;;;;;5100319;28;21358;-83
2021/05/15 09:56:08;;;;;;;0.90;0.90;;;17.60;88.70;;;;;;5100800;28;20456;-83
2021/05/15 09:58:35;;;;;;;1.00;1.00;;;17.70;87.20;;;;;;5100465;28;20460;-80
2021/05/15 10:01:01;;;;;;;1.90;0.80;;;17.80;87.90;;;;;;5100760;28;20480;-82
2021/05/15 10:03:29;;;;;;;1.53;1.20;;;18.00;87.60;;;;;;5100011;28;20487;-83
2021/05/15 10:06:00;;;;;;;0.80;0.80;;;17.90;85.60;;;;;;5100157;28;20450;-83
2021/05/15 10:08:27;;;;;;;1.07;1.03;;;17.90;86.10;;;;;;5100541;28;20533;-83
2021/05/15 10:10:54;;;;;;;2.60;1.37;;;17.80;86.40;;;;;;5099948;28;20845;-80
2021/05/15 10:13:21;;;;;;;1.13;1.03;;;17.60;86.20;;;;;;5100322;28;20497;-82
2021/05/15 10:15:48;;;;;;;2.77;1.10;;;17.60;86.20;;;;;;5100669;28;20447;-81
2021/05/15 10:18:14;;;;;;;2.50;1.73;;;17.50;86.80;;;;;;5103548;28;20457;-83
2021/05/15 10:20:41;;;;;;;1.23;1.13;;;17.50;87.20;;;;;;5102159;28;20543;-83
2021/05/15 10:23:16;;;;;;;1.10;1.07;;;17.40;87.10;;;;;;5106824;28;20443;-81
2021/05/15 10:25:43;;;;;;;0.90;0.90;;;17.40;86.70;;;;;;5107730;28;20443;-81
2021/05/15 10:28:10;;;;;;;2.77;0.90;;;17.30;87.10;;;;;;5107871;28;20481;-81
2021/05/15 10:30:36;;;;;;;2.20;1.43;;;17.30;86.70;;;;;;5113487;28;20500;-78
2021/05/15 10:33:07;;;;;;;1.70;1.00;;;17.20;87.20;;;;;;5113414;28;20487;-82
2021/05/15 10:35:39;;;;;;;1.10;1.10;;;17.30;86.10;;;;;;5101996;28;20430;-77
2021/05/15 10:38:08;;;;;;;1.30;1.20;;;17.40;86.40;;;;;;5095396;28;20501;-81
2021/05/15 10:40:46;;;;;;;0.60;0.60;;;17.60;87.40;;;;;;5093261;28;20466;-81
2021/05/15 10:43:13;;;;;;;1.37;1.20;;;17.70;85.50;;;;;;5090322;28;20469;-77
2021/05/15 10:45:42;;;;;;;2.03;1.83;;;17.90;86.30;;;;;;5088599;28;20447;-80
2021/05/15 10:48:23;;;;;;;1.73;1.10;;;18.20;84.30;;;;;;5089506;28;20444;-79
2021/05/15 10:50:51;;;;;;;1.57;1.43;;;18.30;82.80;;;;;;5088655;28;20453;-80
2021/05/15 10:53:19;;;;;;;1.60;1.00;;;18.40;83.50;;;;;;5086823;28;20515;-77
2021/05/15 10:56:12;;;;;;;1.30;1.00;;;18.40;83.50;;;;;;5089842;28;20504;-77
2021/05/15 10:58:41;;;;;;;1.70;1.43;;;18.20;82.60;;;;;;5090018;28;20471;-77
2021/05/15 11:01:13;;;;;;;1.67;1.20;;;18.20;81.70;;;;;;5089704;28;20450;-81
2021/05/15 11:03:40;;;;;;;3.33;1.03;;;18.00;81.90;;;;;;5086485;28;20473;-80
2021/05/15 11:06:18;;;;;;;1.50;0.80;;;18.00;79.80;;;;;;5081629;28;20888;-78
2021/05/15 11:08:56;;;;;;;1.00;0.90;;;17.80;79.40;;;;;;5082462;28;20448;-77
2021/05/15 11:11:34;;;;;;;2.40;1.10;;;17.50;81.80;;;;;;5081646;28;20459;-77
2021/05/15 11:14:03;;;;;;;1.17;1.00;;;17.30;83.90;;;;;;5083712;28;20493;-80
2021/05/15 11:16:33;;;;;;;2.57;0.93;;;17.20;81.40;;;;;;5087717;28;20459;-80
2021/05/15 11:19:07;;;;;;;1.33;0.97;;;17.20;79.50;;;;;;5086669;28;20549;-79
2021/05/15 11:21:35;;;;;;;1.30;1.20;;;17.10;80.10;;;;;;5085835;28;20453;-80
2021/05/15 11:24:01;;;;;;;1.37;1.00;;;17.10;80.40;;;;;;5087029;28;20474;-81
2021/05/15 11:26:37;;;;;;;1.57;1.10;;;17.00;79.80;;;;;;5086695;28;20456;-80
2021/05/15 11:29:06;;;;;;;1.60;0.87;;;16.90;79.70;;;;;;5087319;28;20501;-80
2021/05/15 11:31:38;;;;;;;1.33;1.07;;;16.90;80.90;;;;;;5085098;28;20458;-80
2021/05/15 11:34:12;;;;;;;2.40;1.70;;;16.70;86.20;;;;;;5086044;28;20495;-80
2021/05/15 11:36:43;;;;;;;1.00;0.83;;;16.50;90.00;;;;;;5088119;28;20447;-79
2021/05/15 11:39:12;;;;;;;1.80;1.00;;;16.40;88.50;;;;;;5090610;28;20539;-77
2021/05/15 11:41:39;;;;;;;0.97;0.87;;;16.50;88.20;;;;;;5089643;28;20522;-78
2021/05/15 11:44:06;;;;;;;1.10;1.00;;;16.70;87.30;;;;;;5090424;28;20861;-78
2021/05/15 11:46:33;;;;;;;2.87;1.00;;;17.00;86.40;;;;;;5086087;28;20443;-80
2021/05/15 11:48:59;;;;;;;2.90;1.20;;;17.30;85.50;;;;;;5089032;28;20552;-79
2021/05/15 11:51:26;;;;;;;1.90;1.13;;;17.60;85.30;;;;;;5090258;28;20453;-78
2021/05/15 11:53:55;;;;;;;1.10;1.00;;;17.80;82.20;;;;;;5089751;28;21011;-80
2021/05/15 11:56:23;;;;;;;1.70;1.30;;;18.00;81.40;;;;;;5089898;28;20448;-79
2021/05/15 11:58:51;;;;;;;0.80;0.73;;;18.20;78.20;;;;;;5089034;28;20450;-80
2021/05/15 12:01:19;;;;;;;0.70;0.70;;;18.20;79.00;;;;;;5089325;28;21014;-78
2021/05/15 12:03:46;;;;;;;0.90;0.90;;;18.30;79.40;;;;;;5088487;28;20465;-79
2021/05/15 12:06:14;;;;;;;0.70;0.70;;;18.50;76.80;;;;;;5088679;28;20534;-80
2021/05/15 12:08:40;;;;;;;1.20;1.10;;;18.60;77.10;;;;;;5092694;28;20462;-79
2021/05/15 12:11:07;;;;;;;1.73;0.63;;;18.80;75.20;;;;;;5092767;28;20449;-78
2021/05/15 12:13:33;;;;;;;1.30;1.20;;;18.90;74.20;;;;;;5093601;28;20486;-78
2021/05/15 12:16:01;;;;;;;1.03;0.97;;;18.90;74.40;;;;;;5091851;28;20449;-78
2021/05/15 12:18:28;;;;;;;1.13;0.90;;;18.90;75.80;;;;;;5093216;28;20455;-77
2021/05/15 12:20:55;;;;;;;2.00;1.20;;;19.10;75.90;;;;;;5092246;28;20450;-81
2021/05/15 12:23:24;;;;;;;1.80;1.60;;;19.30;75.00;;;;;;5092679;28;20561;-78
2021/05/15 12:25:57;;;;;;;1.63;1.53;;;19.50;73.90;;;;;;5094017;28;20462;-79
2021/05/15 12:28:25;;;;;;;1.47;0.87;;;19.70;73.50;;;;;;5093879;28;20450;-77
2021/05/15 12:30:52;;;;;;;2.73;1.27;;;19.90;72.00;;;;;;5093212;28;21082;-79
2021/05/15 12:33:20;;;;;;;1.17;0.60;;;20.00;72.10;;;;;;5094167;28;20498;-78
2021/05/15 12:36:01;;;;;;;1.10;1.00;;;19.80;70.70;;;;;;5095599;28;20458;-78
2021/05/15 12:38:29;;;;;;;1.90;1.03;;;19.70;69.90;;;;;;5096143;28;20446;-76
2021/05/15 12:41:08;;;;;;;1.33;1.23;;;19.60;70.00;;;;;;5096114;28;20469;-79
2021/05/15 12:43:37;;;;;;;3.23;1.20;;;19.50;71.50;;;;;;5094488;28;20475;-80
2021/05/15 12:46:09;;;;;;;1.37;1.27;;;19.50;70.70;;;;;;5084402;28;20454;-78
2021/05/15 12:48:39;;;;;;;1.47;0.77;;;19.40;70.40;;;;;;5079056;28;20458;-81
2021/05/15 12:51:08;;;;;;;1.07;0.80;;;19.30;70.80;;;;;;5079997;28;20458;-81
2021/05/15 12:53:35;;;;;;;1.90;1.80;;;19.20;68.90;;;;;;5077750;28;20527;-81
2021/05/15 12:56:03;;;;;;;0.60;0.60;;;19.10;69.80;;;;;;5080188;28;20458;-81